This is the latest recevied weather packets stored in our database for station/object OK2KJT-11. If no packets are shown the sender has not sent any weather packets the latest 10 day(s).
| Time | Temp. | Humidity | Pressure | Rain* | Wind** | Luminosity | Snow |
|---|---|---|---|---|---|---|---|
| 1788655690 | 11.11° C | 71% | 1023.7 hPa | - | - | - | - |
| 1788655090 | 11.11° C | 70% | 1023.7 hPa | - | - | - | - |
| 1788654490 | 10.56° C | 71% | 1023.5 hPa | - | - | - | - |
| 1788653891 | 10.56° C | 72% | 1023.6 hPa | - | - | - | - |
| 1788653291 | 10.56° C | 72% | 1023.6 hPa | - | - | - | - |
| 1788652691 | 10.56° C | 70% | 1023.7 hPa | - | - | - | - |
| 1788652092 | 11.11° C | 67% | 1023.6 hPa | - | - | - | - |
| 1788651491 | 11.67° C | 65% | 1023.6 hPa | - | - | - | - |
| 1788650892 | 12.22° C | 62% | 1023.3 hPa | - | - | - | - |
| 1788650292 | 12.22° C | 61% | 1023.2 hPa | - | - | - | - |
| 1788649692 | 12.22° C | 60% | 1023.4 hPa | - | - | - | - |
| 1788649093 | 12.22° C | 60% | 1023.4 hPa | - | - | - | - |
| 1788648493 | 12.78° C | 60% | 1023.3 hPa | - | - | - | - |
| 1788647894 | 12.22° C | 61% | 1023.2 hPa | - | - | - | - |
| 1788647293 | 12.78° C | 60% | 1023.2 hPa | - | - | - | - |
| 1788646693 | 12.78° C | 59% | 1023.2 hPa | - | - | - | - |
| 1788646094 | 12.78° C | 59% | 1023.2 hPa | - | - | - | - |
| 1788645493 | 12.78° C | 59% | 1023.1 hPa | - | - | - | - |
| 1788644892 | 12.78° C | 59% | 1023 hPa | - | - | - | - |
| 1788644292 | 13.33° C | 59% | 1022.9 hPa | - | - | - | - |
| 1788643693 | 13.33° C | 57% | 1022.8 hPa | - | - | - | - |
| 1788643101 | 13.33° C | 57% | 1022.8 hPa | - | - | - | - |
| 1788642494 | 13.33° C | 58% | 1022.7 hPa | - | - | - | - |
| 1788641901 | 13.89° C | 58% | 1022.8 hPa | - | - | - | - |
| 1788641294 | 13.89° C | 60% | 1022.6 hPa | - | - | - | - |
* Rain since midnight (hover to see other rain measurements)
** Current wind speed in m/s (hover to see current wind gust speed)